Time;durP1;ratioP1;P1;durP2;ratioP2;P2;SDS_P1;SDS_P2;PMS_P1;PMS_P2;Temp;Humidity;BMP_temperature;BMP_pressure;BME280_temperature;BME280_humidity;BME280_pressure;Samples;Min_cycle;Max_cycle;Signal;HPM_P1;HPM_P2
2024/01/08 00:02:16;;;;;;;25.92;11.90;;;;;;;-145.63;100.00;61273.97;5102096;28;20092;-65
2024/01/08 00:04:42;;;;;;;27.05;12.32;;;;;;;-145.63;100.00;61273.97;5085839;28;20025;-65
2024/01/08 00:07:07;;;;;;;28.90;13.27;;;;;;;-145.63;100.00;61273.97;5072156;28;20029;-65
2024/01/08 00:09:33;;;;;;;29.42;14.15;;;;;;;-145.63;100.00;61273.97;5085818;28;20029;-65
2024/01/08 00:11:59;;;;;;;24.83;12.85;;;;;;;-145.63;100.00;61273.97;5067796;28;20100;-64
2024/01/08 00:14:24;;;;;;;27.02;11.80;;;;;;;-145.63;100.00;61273.97;5080534;28;20178;-63
2024/01/08 00:16:50;;;;;;;27.00;11.73;;;;;;;-145.63;100.00;61273.97;5066915;28;20024;-63
2024/01/08 00:19:16;;;;;;;24.83;11.65;;;;;;;-145.63;100.00;61273.97;5106505;28;20016;-64
2024/01/08 00:21:42;;;;;;;24.40;11.35;;;;;;;-145.63;100.00;61273.97;5090157;28;20024;-65
2024/01/08 00:24:08;;;;;;;25.58;11.30;;;;;;;-145.63;100.00;61273.97;5074663;28;20101;-63
2024/01/08 00:26:34;;;;;;;24.27;11.40;;;;;;;-145.63;100.00;61273.97;5071547;28;20028;-65
2024/01/08 00:28:59;;;;;;;24.52;12.15;;;;;;;-145.63;100.00;61273.97;5083523;28;20089;-64
2024/01/08 00:31:25;;;;;;;27.52;11.65;;;;;;;-145.63;100.00;61273.97;5065461;28;20052;-65
2024/01/08 00:33:51;;;;;;;25.70;11.57;;;;;;;-145.63;100.00;61273.97;5082025;28;20400;-63
2024/01/08 00:36:17;;;;;;;26.20;12.35;;;;;;;-145.63;100.00;61273.97;5073030;28;20044;-64
2024/01/08 00:38:42;;;;;;;23.35;12.13;;;;;;;-145.63;100.00;61273.97;5072519;28;20036;-64
2024/01/08 00:41:08;;;;;;;27.90;12.32;;;;;;;-145.63;100.00;61273.97;5082346;28;20095;-63
2024/01/08 00:43:34;;;;;;;28.02;13.52;;;;;;;-145.63;100.00;61273.97;5065133;28;20041;-63
2024/01/08 00:45:59;;;;;;;29.17;12.10;;;;;;;-145.63;100.00;61273.97;5082914;28;20028;-64
2024/01/08 00:48:25;;;;;;;26.17;12.55;;;;;;;-145.63;100.00;61273.97;5071792;28;20202;-63
2024/01/08 00:50:52;;;;;;;30.05;12.98;;;;;;;-145.63;100.00;61273.97;5081939;28;20066;-64
2024/01/08 00:53:18;;;;;;;27.98;13.32;;;;;;;-145.63;100.00;61273.97;5080979;28;20032;-64
2024/01/08 00:55:43;;;;;;;28.88;13.05;;;;;;;-145.63;100.00;61273.97;5064801;28;20021;-63
2024/01/08 00:58:09;;;;;;;24.73;12.75;;;;;;;-145.63;100.00;61273.97;5083877;28;20024;-64
2024/01/08 01:00:35;;;;;;;23.73;13.40;;;;;;;-145.63;100.00;61273.97;5083999;28;20028;-63
2024/01/08 01:03:01;;;;;;;29.65;13.00;;;;;;;-145.63;100.00;61273.97;5075117;28;20025;-65
2024/01/08 01:05:26;;;;;;;36.30;15.52;;;;;;;-145.63;100.00;61273.97;5069577;28;20040;-64
2024/01/08 01:07:52;;;;;;;29.48;12.57;;;;;;;-145.63;100.00;61273.97;5084364;28;20208;-63
2024/01/08 01:10:18;;;;;;;34.17;13.80;;;;;;;-145.63;100.00;61273.97;5084763;28;20021;-63
2024/01/08 01:12:44;;;;;;;37.33;15.38;;;;;;;-145.63;100.00;61273.97;5084643;28;20031;-64
2024/01/08 01:15:11;;;;;;;31.77;13.93;;;;;;;-145.63;100.00;61273.97;5084349;28;20032;-64
2024/01/08 01:17:36;;;;;;;31.50;13.82;;;;;;;-145.63;100.00;61273.97;5078420;28;20094;-64
2024/01/08 01:20:03;;;;;;;34.63;14.38;;;;;;;-145.63;100.00;61273.97;5065694;28;20033;-63
2024/01/08 01:22:30;;;;;;;29.75;13.60;;;;;;;-145.63;100.00;61273.97;5084418;28;20039;-62
2024/01/08 01:24:56;;;;;;;35.47;14.20;;;;;;;-145.63;100.00;61273.97;5066809;28;20044;-65
2024/01/08 01:27:21;;;;;;;26.88;13.98;;;;;;;-145.63;100.00;61273.97;5076595;28;20028;-64
2024/01/08 01:29:47;;;;;;;27.88;13.40;;;;;;;-145.63;100.00;61273.97;5076640;28;20202;-63
2024/01/08 01:32:13;;;;;;;28.83;14.02;;;;;;;-145.63;100.00;61273.97;5066868;28;20041;-62
2024/01/08 01:34:39;;;;;;;29.45;13.25;;;;;;;-145.63;100.00;61273.97;5083809;28;20302;-63
2024/01/08 01:37:05;;;;;;;33.67;14.52;;;;;;;-145.63;100.00;61273.97;5065633;28;20049;-64
2024/01/08 01:39:32;;;;;;;29.45;13.48;;;;;;;-145.63;100.00;61273.97;5063942;28;20096;-63
2024/01/08 01:41:58;;;;;;;27.02;13.43;;;;;;;-145.63;100.00;61273.97;5063876;28;20047;-64
2024/01/08 01:44:24;;;;;;;28.17;12.82;;;;;;;-145.63;100.00;61273.97;5063894;28;20032;-64
2024/01/08 01:46:51;;;;;;;28.17;12.98;;;;;;;-145.63;100.00;61273.97;5063982;28;20088;-64
2024/01/08 01:49:19;;;;;;;32.22;13.00;;;;;;;-145.63;100.00;61273.97;5063873;28;20032;-64
2024/01/08 01:51:48;;;;;;;27.30;12.98;;;;;;;-145.63;100.00;61273.97;5078918;28;20284;-63
2024/01/08 01:54:15;;;;;;;23.15;13.25;;;;;;;-145.63;100.00;61273.97;5072534;28;20085;-64
2024/01/08 01:56:44;;;;;;;27.73;12.15;;;;;;;-145.63;100.00;61273.97;5063612;28;20144;-64
2024/01/08 01:59:10;;;;;;;28.58;13.40;;;;;;;-145.63;100.00;61273.97;5063528;28;20020;-63
2024/01/08 02:01:36;;;;;;;22.70;12.38;;;;;;;-145.63;100.00;61273.97;5063749;28;20028;-64
2024/01/08 02:04:03;;;;;;;24.00;12.60;;;;;;;-145.63;100.00;61273.97;5063527;28;20201;-64
2024/01/08 02:06:29;;;;;;;27.85;13.85;;;;;;;-145.63;100.00;61273.97;5063575;28;20325;-63
2024/01/08 02:08:56;;;;;;;26.92;12.63;;;;;;;-145.63;100.00;61273.97;5063090;28;20325;-63
2024/01/08 02:11:22;;;;;;;22.38;11.73;;;;;;;-145.63;100.00;61273.97;5063033;28;20029;-64
2024/01/08 02:13:48;;;;;;;28.40;12.10;;;;;;;-145.63;100.00;61273.97;5063369;28;20059;-63
2024/01/08 02:16:15;;;;;;;25.98;11.23;;;;;;;-145.63;100.00;61273.97;5063190;28;20029;-64
2024/01/08 02:18:40;;;;;;;23.23;11.65;;;;;;;-145.63;100.00;61273.97;5063250;28;20301;-64
2024/01/08 02:21:06;;;;;;;20.70;10.98;;;;;;;-145.63;100.00;61273.97;5063077;28;20096;-64
2024/01/08 02:23:33;;;;;;;24.95;11.93;;;;;;;-145.63;100.00;61273.97;5063175;28;20029;-63
2024/01/08 02:25:58;;;;;;;23.05;11.70;;;;;;;-145.63;100.00;61273.97;5062771;28;20029;-64
2024/01/08 02:28:25;;;;;;;24.23;11.18;;;;;;;-145.63;100.00;61273.97;5062132;28;20325;-63
2024/01/08 02:30:51;;;;;;;19.05;10.43;;;;;;;-145.63;100.00;61273.97;5063358;28;20020;-63
2024/01/08 02:33:16;;;;;;;25.38;11.32;;;;;;;-145.63;100.00;61273.97;5063646;28;20027;-63
2024/01/08 02:35:42;;;;;;;22.63;11.07;;;;;;;-145.63;100.00;61273.97;5062749;28;20048;-63
2024/01/08 02:38:08;;;;;;;18.05;10.70;;;;;;;-145.63;100.00;61273.97;5061261;28;20025;-64
2024/01/08 02:40:34;;;;;;;22.08;11.40;;;;;;;-145.63;100.00;61273.97;5043020;28;20109;-62
2024/01/08 02:43:00;;;;;;;20.33;10.77;;;;;;;-145.63;100.00;61273.97;5059467;28;20047;-62
2024/01/08 02:45:25;;;;;;;18.55;10.68;;;;;;;-145.63;100.00;61273.97;5050582;28;20089;-63
2024/01/08 02:47:51;;;;;;;18.38;9.82;;;;;;;-145.63;100.00;61273.97;5050039;28;20063;-63
2024/01/08 02:50:17;;;;;;;17.98;9.93;;;;;;;-145.63;100.00;61273.97;5062581;28;20048;-63
2024/01/08 02:52:44;;;;;;;19.15;10.27;;;;;;;-145.63;100.00;61273.97;5062686;28;20035;-63
2024/01/08 02:55:10;;;;;;;17.23;10.13;;;;;;;-145.63;100.00;61273.97;5044241;28;20301;-63
2024/01/08 02:57:36;;;;;;;19.25;9.90;;;;;;;-145.63;100.00;61273.97;5070233;28;20024;-63
2024/01/08 03:00:04;;;;;;;22.23;11.07;;;;;;;-145.63;100.00;61273.97;5073824;28;20298;-63
2024/01/08 03:02:33;;;;;;;21.27;10.68;;;;;;;-145.63;100.00;61273.97;5058229;28;20026;-63
2024/01/08 03:04:58;;;;;;;18.27;11.02;;;;;;;-145.63;100.00;61273.97;5042427;28;20036;-64
2024/01/08 03:07:24;;;;;;;21.58;11.77;;;;;;;-145.63;100.00;61273.97;5051131;28;20025;-63
2024/01/08 03:09:50;;;;;;;20.73;11.15;;;;;;;-145.63;100.00;61273.97;5062487;28;20040;-63
2024/01/08 03:12:16;;;;;;;24.58;11.30;;;;;;;-145.63;100.00;61273.97;5062591;28;20336;-64
2024/01/08 03:14:43;;;;;;;21.35;11.00;;;;;;;-145.63;100.00;61273.97;5056374;28;20321;-63
2024/01/08 03:17:09;;;;;;;24.75;12.73;;;;;;;-145.63;100.00;61273.97;5043817;28;20198;-63
2024/01/08 03:19:35;;;;;;;23.92;11.18;;;;;;;-145.63;100.00;61273.97;5062569;28;20045;-63
2024/01/08 03:22:01;;;;;;;20.40;10.80;;;;;;;-145.63;100.00;61273.97;5045684;28;20306;-63
2024/01/08 03:24:28;;;;;;;20.90;12.15;;;;;;;-145.63;100.00;61273.97;5057697;28;20032;-62
2024/01/08 03:26:53;;;;;;;22.05;11.52;;;;;;;-145.63;100.00;61273.97;5059181;28;20096;-63
2024/01/08 03:29:19;;;;;;;24.20;12.38;;;;;;;-145.63;100.00;61273.97;5048986;28;20025;-63
2024/01/08 03:31:45;;;;;;;22.55;12.48;;;;;;;-145.63;100.00;61273.97;5066560;28;20041;-63
2024/01/08 03:34:12;;;;;;;29.23;14.23;;;;;;;-145.63;100.00;61273.97;5048290;28;20088;-63
2024/01/08 03:36:38;;;;;;;26.15;14.13;;;;;;;-145.63;100.00;61273.97;5059397;28;20037;-62
2024/01/08 03:39:03;;;;;;;27.83;16.23;;;;;;;-145.63;100.00;61273.97;5057297;28;20037;-64
2024/01/08 03:41:29;;;;;;;32.67;15.68;;;;;;;-145.63;100.00;61273.97;5049908;28;20043;-64
2024/01/08 03:43:55;;;;;;;31.33;16.55;;;;;;;-145.63;100.00;61273.97;5066131;28;20036;-62
2024/01/08 03:46:20;;;;;;;34.30;17.52;;;;;;;-145.63;100.00;61273.97;5046773;28;20255;-63
2024/01/08 03:48:46;;;;;;;33.15;17.67;;;;;;;-145.63;100.00;61273.97;5060218;28;20025;-64
2024/01/08 03:51:12;;;;;;;36.67;18.67;;;;;;;-145.63;100.00;61273.97;5065763;28;20036;-63
2024/01/08 03:53:37;;;;;;;35.50;19.35;;;;;;;-145.63;100.00;61273.97;5060786;28;20101;-63
2024/01/08 03:56:03;;;;;;;36.65;19.73;;;;;;;-145.63;100.00;61273.97;5044659;28;20041;-64
2024/01/08 03:58:29;;;;;;;39.47;19.77;;;;;;;-145.63;100.00;61273.97;5066008;28;20088;-64
2024/01/08 04:00:55;;;;;;;38.95;19.83;;;;;;;-145.63;100.00;61273.97;5065515;28;20033;-63
2024/01/08 04:03:21;;;;;;;34.13;18.33;;;;;;;-145.63;100.00;61273.97;5054938;28;20084;-63
2024/01/08 04:05:47;;;;;;;33.08;18.40;;;;;;;-145.63;100.00;61273.97;5051926;28;20086;-64
2024/01/08 04:08:13;;;;;;;37.25;21.25;;;;;;;-145.63;100.00;61273.97;5065657;28;20037;-63
2024/01/08 04:10:39;;;;;;;35.95;20.55;;;;;;;-145.63;100.00;61273.97;5065696;28;20055;-63
2024/01/08 04:13:05;;;;;;;39.97;20.25;;;;;;;-145.63;100.00;61273.97;5065554;28;20021;-63
2024/01/08 04:15:31;;;;;;;37.25;20.00;;;;;;;-145.63;100.00;61273.97;5053435;28;20094;-64
2024/01/08 04:17:56;;;;;;;39.30;20.00;;;;;;;-145.63;100.00;61273.97;5052906;28;20029;-63
2024/01/08 04:20:22;;;;;;;35.05;20.60;;;;;;;-145.63;100.00;61273.97;5062923;28;20020;-63
2024/01/08 04:22:50;;;;;;;38.45;20.55;;;;;;;-145.63;100.00;61273.97;5045409;28;20060;-63
2024/01/08 04:25:16;;;;;;;36.45;19.67;;;;;;;-145.63;100.00;61273.97;5063437;28;20100;-65
2024/01/08 04:27:45;;;;;;;38.88;20.10;;;;;;;-145.63;100.00;61273.97;5051798;28;20029;-63
2024/01/08 04:30:11;;;;;;;35.30;19.63;;;;;;;-145.63;100.00;61273.97;5054360;28;20040;-63
2024/01/08 04:32:36;;;;;;;36.85;19.20;;;;;;;-145.63;100.00;61273.97;5060868;28;20093;-63
2024/01/08 04:35:03;;;;;;;38.88;21.58;;;;;;;-145.63;100.00;61273.97;5044885;28;20033;-62
2024/01/08 04:37:30;;;;;;;36.30;19.52;;;;;;;-145.63;100.00;61273.97;5045467;28;20049;-63
2024/01/08 04:39:55;;;;;;;37.35;21.42;;;;;;;-145.63;100.00;61273.97;5060381;28;20074;-62
2024/01/08 04:42:21;;;;;;;35.72;20.55;;;;;;;-145.63;100.00;61273.97;5065093;28;20028;-64
2024/01/08 04:44:47;;;;;;;39.30;19.85;;;;;;;-145.63;100.00;61273.97;5059282;28;20369;-62
2024/01/08 04:47:13;;;;;;;37.60;20.10;;;;;;;-145.63;100.00;61273.97;5045844;28;20033;-62
2024/01/08 04:49:39;;;;;;;35.63;20.88;;;;;;;-145.63;100.00;61273.97;5064965;28;20024;-63
2024/01/08 04:52:05;;;;;;;33.40;20.33;;;;;;;-145.63;100.00;61273.97;5064663;28;20127;-64
2024/01/08 04:54:31;;;;;;;36.20;19.92;;;;;;;-145.63;100.00;61273.97;5053030;28;20028;-64
2024/01/08 04:56:56;;;;;;;38.70;20.05;;;;;;;-145.63;100.00;61273.97;5051561;28;20402;-64
2024/01/08 04:59:22;;;;;;;37.58;20.35;;;;;;;-145.63;100.00;61273.97;5047001;28;20063;-63
2024/01/08 05:01:49;;;;;;;34.17;19.35;;;;;;;-145.63;100.00;61273.97;5064772;28;20314;-63
2024/01/08 05:04:15;;;;;;;30.95;18.75;;;;;;;-145.63;100.00;61273.97;5046892;28;20030;-64
2024/01/08 05:06:43;;;;;;;35.40;20.23;;;;;;;-145.63;100.00;61273.97;5050185;28;20036;-62
2024/01/08 05:09:08;;;;;;;34.67;19.10;;;;;;;-145.63;100.00;61273.97;5055885;28;20032;-62
2024/01/08 05:11:35;;;;;;;37.03;19.67;;;;;;;-145.63;100.00;61273.97;5045051;28;20025;-62
2024/01/08 05:14:01;;;;;;;31.48;18.77;;;;;;;-145.63;100.00;61273.97;5044764;28;20046;-62
2024/01/08 05:16:26;;;;;;;33.05;19.90;;;;;;;-145.63;100.00;61273.97;5063424;28;20179;-63
2024/01/08 05:18:52;;;;;;;35.13;20.23;;;;;;;-145.63;100.00;61273.97;5064166;28;20245;-63
2024/01/08 05:21:18;;;;;;;34.45;20.38;;;;;;;-145.63;100.00;61273.97;5054524;28;20057;-64
2024/01/08 05:23:44;;;;;;;37.17;20.08;;;;;;;-145.63;100.00;61273.97;5049244;28;20276;-63
2024/01/08 05:26:09;;;;;;;35.33;21.15;;;;;;;-145.63;100.00;61273.97;5063951;28;20029;-62
2024/01/08 05:28:35;;;;;;;36.45;20.42;;;;;;;-145.63;100.00;61273.97;5044134;28;20056;-62
2024/01/08 05:31:01;;;;;;;36.33;19.90;;;;;;;-145.63;100.00;61273.97;5059390;28;20025;-62
2024/01/08 05:33:26;;;;;;;33.78;20.50;;;;;;;-145.63;100.00;61273.97;5053306;28;20045;-64
2024/01/08 05:35:52;;;;;;;35.90;19.05;;;;;;;-145.63;100.00;61273.97;5054266;28;20247;-61
2024/01/08 05:38:18;;;;;;;33.30;19.92;;;;;;;-145.63;100.00;61273.97;5083181;28;20098;-62
2024/01/08 05:40:44;;;;;;;34.50;18.52;;;;;;;-145.63;100.00;61273.97;5064101;28;20352;-62
2024/01/08 05:43:09;;;;;;;29.85;17.38;;;;;;;-145.63;100.00;61273.97;5080317;28;20021;-63
2024/01/08 05:45:35;;;;;;;33.65;18.05;;;;;;;-145.63;100.00;61273.97;5095179;28;20048;-63
2024/01/08 05:48:01;;;;;;;29.23;16.17;;;;;;;-145.63;100.00;61273.97;5078830;28;20088;-62
2024/01/08 05:50:27;;;;;;;34.25;17.17;;;;;;;-145.63;100.00;61273.97;5083786;28;20373;-63
2024/01/08 05:52:56;;;;;;;33.60;16.77;;;;;;;-145.63;100.00;61273.97;5065474;28;20217;-64
2024/01/08 05:55:23;;;;;;;29.50;16.05;;;;;;;-145.63;100.00;61273.97;5047702;28;20336;-63
2024/01/08 05:57:49;;;;;;;27.35;16.08;;;;;;;-145.63;100.00;61273.97;5077224;28;20100;-63
2024/01/08 06:00:16;;;;;;;26.23;14.73;;;;;;;-145.63;100.00;61273.97;5083634;28;20024;-64
2024/01/08 06:02:42;;;;;;;28.13;14.93;;;;;;;-145.63;100.00;61273.97;5079273;28;20032;-63
2024/01/08 06:05:08;;;;;;;26.25;14.57;;;;;;;-145.63;100.00;61273.97;5063417;28;20060;-64
2024/01/08 06:07:34;;;;;;;21.98;12.68;;;;;;;-145.63;100.00;61273.97;5083118;28;20070;-64
2024/01/08 06:10:00;;;;;;;24.67;13.00;;;;;;;-145.63;100.00;61273.97;5083264;28;20052;-63
2024/01/08 06:12:26;;;;;;;24.60;14.20;;;;;;;-145.63;100.00;61273.97;5083058;28;20020;-63
2024/01/08 06:14:52;;;;;;;21.75;12.95;;;;;;;-145.63;100.00;61273.97;5083176;28;20034;-63
2024/01/08 06:17:18;;;;;;;24.33;13.63;;;;;;;-145.63;100.00;61273.97;5082332;28;20249;-64
2024/01/08 06:19:44;;;;;;;24.73;13.45;;;;;;;-145.63;100.00;61273.97;5063222;28;20032;-63
2024/01/08 06:22:09;;;;;;;21.42;12.88;;;;;;;-145.63;100.00;61273.97;5079383;28;20024;-63
2024/01/08 06:24:35;;;;;;;22.48;12.60;;;;;;;-145.63;100.00;61273.97;5071476;28;20035;-64
2024/01/08 06:27:01;;;;;;;26.98;14.23;;;;;;;-145.63;100.00;61273.97;5069541;28;20229;-63
2024/01/08 06:29:26;;;;;;;25.92;15.10;;;;;;;-145.63;100.00;61273.97;5080898;28;20028;-63
2024/01/08 06:31:52;;;;;;;26.80;15.10;;;;;;;-145.63;100.00;61273.97;5075430;28;20055;-63
2024/01/08 06:34:18;;;;;;;27.95;15.38;;;;;;;-145.63;100.00;61273.97;5065385;28;20025;-63
2024/01/08 06:36:44;;;;;;;23.60;14.15;;;;;;;-145.63;100.00;61273.97;5063954;28;20047;-62
2024/01/08 06:39:09;;;;;;;28.42;15.93;;;;;;;-145.63;100.00;61273.97;5062436;28;20376;-63
2024/01/08 06:41:38;;;;;;;29.83;15.80;;;;;;;-145.63;100.00;61273.97;5059759;28;20311;-63
2024/01/08 06:44:04;;;;;;;27.38;15.45;;;;;;;-145.63;100.00;61273.97;5044428;28;20096;-63
2024/01/08 06:46:30;;;;;;;27.00;15.52;;;;;;;-145.63;100.00;61273.97;5062168;28;20029;-62
2024/01/08 06:48:57;;;;;;;28.98;16.20;;;;;;;-145.63;100.00;61273.97;5059528;28;20036;-62
2024/01/08 06:51:23;;;;;;;26.98;15.55;;;;;;;-145.63;100.00;61273.97;5062396;28;20021;-63
2024/01/08 06:53:49;;;;;;;23.90;14.75;;;;;;;-145.63;100.00;61273.97;5062127;28;20091;-64
2024/01/08 06:56:15;;;;;;;25.45;15.18;;;;;;;-145.63;100.00;61273.97;5062034;28;20028;-64
2024/01/08 06:58:41;;;;;;;24.27;14.13;;;;;;;-145.63;100.00;61273.97;5041647;28;20332;-65
2024/01/08 07:01:07;;;;;;;25.42;14.00;;;;;;;-145.63;100.00;61273.97;5056939;28;20190;-64
2024/01/08 07:03:34;;;;;;;27.55;14.90;;;;;;;-145.63;100.00;61273.97;5062469;28;20108;-64
2024/01/08 07:06:01;;;;;;;24.42;14.20;;;;;;;-145.63;100.00;61273.97;5056228;28;20029;-64
2024/01/08 07:08:27;;;;;;;28.38;15.20;;;;;;;-145.63;100.00;61273.97;5075079;28;20032;-63
2024/01/08 07:10:53;;;;;;;26.65;14.32;;;;;;;-145.63;100.00;61273.97;5062220;28;20029;-63
2024/01/08 07:13:19;;;;;;;26.83;15.15;;;;;;;-145.63;100.00;61273.97;5062349;28;20099;-65
2024/01/08 07:15:48;;;;;;;27.13;14.73;;;;;;;-145.63;100.00;61273.97;5050066;28;20071;-64
2024/01/08 07:18:16;;;;;;;27.63;15.70;;;;;;;-145.63;100.00;61273.97;5050541;28;20032;-66
2024/01/08 07:20:42;;;;;;;28.50;16.10;;;;;;;-145.63;100.00;61273.97;5058673;28;20025;-67
2024/01/08 07:23:11;;;;;;;26.10;15.18;;;;;;;-145.63;100.00;61273.97;5042414;28;20144;-65
2024/01/08 07:25:38;;;;;;;34.72;16.75;;;;;;;-145.63;100.00;61273.97;5061636;28;20068;-65
2024/01/08 07:28:08;;;;;;;26.65;15.30;;;;;;;-145.63;100.00;61273.97;5047408;28;20186;-64
2024/01/08 07:30:34;;;;;;;27.40;15.60;;;;;;;-145.63;100.00;61273.97;5053753;28;20333;-65
2024/01/08 07:33:00;;;;;;;26.67;15.40;;;;;;;-145.63;100.00;61273.97;5055851;28;20025;-66
2024/01/08 07:35:26;;;;;;;25.90;15.25;;;;;;;-145.63;100.00;61273.97;5043061;28;20057;-66
2024/01/08 07:37:55;;;;;;;28.08;15.88;;;;;;;-145.63;100.00;61273.97;5062644;28;20028;-64
2024/01/08 07:40:23;;;;;;;27.30;16.27;;;;;;;-145.63;100.00;61273.97;5079094;28;20096;-64
2024/01/08 07:42:49;;;;;;;27.42;15.63;;;;;;;-145.63;100.00;61273.97;5069463;28;20021;-65
2024/01/08 07:45:15;;;;;;;32.92;18.27;;;;;;;-145.63;100.00;61273.97;5054247;28;20048;-64
2024/01/08 07:47:41;;;;;;;33.03;17.65;;;;;;;-145.63;100.00;61273.97;5048379;28;20051;-64
2024/01/08 07:50:08;;;;;;;34.60;17.95;;;;;;;-145.63;100.00;61273.97;5070471;28;20320;-63
2024/01/08 07:52:34;;;;;;;35.20;18.92;;;;;;;-145.63;100.00;61273.97;5061773;28;20029;-64
2024/01/08 07:54:59;;;;;;;30.75;17.88;;;;;;;-145.63;100.00;61273.97;5061540;28;20064;-64
2024/01/08 07:57:25;;;;;;;31.15;17.77;;;;;;;-145.63;100.00;61273.97;5052844;28;20025;-63
2024/01/08 07:59:51;;;;;;;33.42;18.85;;;;;;;-145.63;100.00;61273.97;5050719;28;20028;-63
2024/01/08 08:02:16;;;;;;;28.50;17.10;;;;;;;-145.63;100.00;61273.97;5081725;28;20209;-62
2024/01/08 08:04:42;;;;;;;30.42;16.92;;;;;;;-145.63;100.00;61273.97;5081593;28;20029;-63
2024/01/08 08:07:07;;;;;;;34.97;16.42;;;;;;;-145.63;100.00;61273.97;5066495;28;20030;-62
2024/01/08 08:09:33;;;;;;;26.48;14.73;;;;;;;-145.63;100.00;61273.97;5063454;28;20033;-62
2024/01/08 08:11:59;;;;;;;28.58;14.90;;;;;;;-145.63;100.00;61273.97;5065573;28;20032;-63
2024/01/08 08:14:26;;;;;;;28.23;16.02;;;;;;;-145.63;100.00;61273.97;5065185;28;20206;-65
2024/01/08 08:16:53;;;;;;;24.42;14.65;;;;;;;-145.63;100.00;61273.97;5065802;28;20024;-64
2024/01/08 08:19:19;;;;;;;25.45;14.85;;;;;;;-145.63;100.00;61273.97;5048839;28;20021;-63
2024/01/08 08:21:44;;;;;;;30.58;14.65;;;;;;;-145.63;100.00;61273.97;5056987;28;20052;-63
2024/01/08 08:24:10;;;;;;;26.33;14.93;;;;;;;-145.63;100.00;61273.97;5058252;28;20201;-64
2024/01/08 08:26:36;;;;;;;23.83;14.48;;;;;;;-145.63;100.00;61273.97;5047499;28;20068;-65
2024/01/08 08:29:02;;;;;;;26.52;15.20;;;;;;;-145.63;100.00;61273.97;5065190;28;20052;-64
2024/01/08 08:31:27;;;;;;;24.98;14.68;;;;;;;-145.63;100.00;61273.97;5047686;28;20329;-62
2024/01/08 08:33:53;;;;;;;25.65;14.18;;;;;;;-145.63;100.00;61273.97;5057749;28;20062;-65
2024/01/08 08:36:19;;;;;;;23.50;13.43;;;;;;;-145.63;100.00;61273.97;5056940;28;20053;-64
2024/01/08 08:38:45;;;;;;;23.50;13.23;;;;;;;-145.63;100.00;61273.97;5047084;28;20037;-63
2024/01/08 08:41:11;;;;;;;28.00;14.85;;;;;;;-145.63;100.00;61273.97;5064714;28;20029;-65
2024/01/08 08:43:37;;;;;;;23.40;14.23;;;;;;;-145.63;100.00;61273.97;5045988;28;20044;-64
2024/01/08 08:46:03;;;;;;;28.67;16.90;;;;;;;-145.63;100.00;61273.97;5058250;28;20021;-64
2024/01/08 08:48:28;;;;;;;24.70;14.05;;;;;;;-145.63;100.00;61273.97;5055641;28;20029;-63
2024/01/08 08:50:54;;;;;;;24.60;14.90;;;;;;;-145.63;100.00;61273.97;5066500;28;20096;-64
2024/01/08 08:53:20;;;;;;;25.75;14.13;;;;;;;-145.63;100.00;61273.97;5084568;28;20025;-63
2024/01/08 08:55:45;;;;;;;23.13;14.00;;;;;;;-145.63;100.00;61273.97;5064711;28;20317;-65
2024/01/08 08:58:11;;;;;;;26.38;13.95;;;;;;;-145.63;100.00;61273.97;5049108;28;20060;-63
2024/01/08 09:00:37;;;;;;;27.63;15.88;;;;;;;-145.63;100.00;61273.97;5054536;28;20024;-63
2024/01/08 09:03:03;;;;;;;25.67;13.50;;;;;;;-145.63;100.00;61273.97;5058810;28;20033;-64
2024/01/08 09:05:30;;;;;;;24.75;14.13;;;;;;;-145.63;100.00;61273.97;5045530;28;20026;-62
2024/01/08 09:07:56;;;;;;;22.27;12.98;;;;;;;-145.63;100.00;61273.97;5064644;28;20028;-65
2024/01/08 09:10:22;;;;;;;22.38;13.32;;;;;;;-145.63;100.00;61273.97;5064048;28;20276;-64
2024/01/08 09:12:47;;;;;;;19.75;12.25;;;;;;;-145.63;100.00;61273.97;5064319;28;20021;-64
2024/01/08 09:15:13;;;;;;;19.02;12.05;;;;;;;-145.63;100.00;61273.97;5064010;28;20033;-64
2024/01/08 09:17:40;;;;;;;17.67;11.05;;;;;;;-145.63;100.00;61273.97;5064339;28;20032;-64
2024/01/08 09:20:11;;;;;;;18.05;9.98;;;;;;;-145.63;100.00;61273.97;5063744;28;20032;-63
2024/01/08 09:22:37;;;;;;;15.70;8.75;;;;;;;-145.63;100.00;61273.97;5045503;28;20025;-64
2024/01/08 09:25:04;;;;;;;14.73;8.80;;;;;;;-145.63;100.00;61273.97;5057526;28;20253;-64
2024/01/08 09:27:31;;;;;;;14.98;9.88;;;;;;;-145.63;100.00;61273.97;5006068;28;20034;-63
2024/01/08 09:29:57;;;;;;;16.55;9.90;;;;;;;-145.63;100.00;61273.97;5048373;28;20044;-64
2024/01/08 09:32:24;;;;;;;16.65;10.43;;;;;;;-145.63;100.00;61273.97;5064119;28;20024;-64
2024/01/08 09:34:51;;;;;;;14.23;8.32;;;;;;;-145.63;100.00;61273.97;5044020;28;20206;-65
2024/01/08 09:37:16;;;;;;;16.85;10.18;;;;;;;-145.63;100.00;61273.97;5090216;28;20074;-64
2024/01/08 09:39:42;;;;;;;14.60;8.20;;;;;;;-145.63;100.00;61273.97;5093369;28;20201;-64
2024/01/08 09:42:09;;;;;;;16.05;8.95;;;;;;;-145.63;100.00;61273.97;5077563;28;20185;-63
2024/01/08 09:44:37;;;;;;;14.02;10.07;;;;;;;-145.63;100.00;61273.97;5064654;28;20033;-63
2024/01/08 09:47:04;;;;;;;14.18;8.43;;;;;;;-145.63;100.00;61273.97;5083390;28;20319;-64
2024/01/08 09:49:32;;;;;;;17.85;9.80;;;;;;;-145.63;100.00;61273.97;5072468;28;20305;-63
2024/01/08 09:52:01;;;;;;;17.23;9.55;;;;;;;-145.63;100.00;61273.97;5083506;28;20020;-64
2024/01/08 09:54:29;;;;;;;14.90;8.32;;;;;;;-145.63;100.00;61273.97;5075076;28;20032;-64
2024/01/08 09:57:00;;;;;;;13.38;8.90;;;;;;;-145.63;100.00;61273.97;5067053;28;20024;-65
2024/01/08 09:59:26;;;;;;;14.52;8.05;;;;;;;-145.63;100.00;61273.97;5083813;28;20056;-67
2024/01/08 10:01:54;;;;;;;17.17;9.02;;;;;;;-145.63;100.00;61273.97;5063597;28;20071;-63
2024/01/08 10:04:21;;;;;;;14.85;9.27;;;;;;;-145.63;100.00;61273.97;5079022;28;20031;-65
2024/01/08 10:06:47;;;;;;;16.73;9.45;;;;;;;-145.63;100.00;61273.97;5083121;28;20016;-64
2024/01/08 10:09:13;;;;;;;17.02;10.68;;;;;;;-145.63;100.00;61273.97;5082877;28;20499;-67
2024/01/08 10:11:39;;;;;;;13.63;8.32;;;;;;;-145.63;100.00;61273.97;5083064;28;20020;-64
2024/01/08 10:14:08;;;;;;;16.52;9.73;;;;;;;-145.63;100.00;61273.97;5083072;28;20217;-63
2024/01/08 10:16:34;;;;;;;18.55;10.25;;;;;;;-145.63;100.00;61273.97;5065657;28;20025;-64
2024/01/08 10:19:00;;;;;;;15.32;8.63;;;;;;;-145.63;100.00;61273.97;5075756;28;20067;-64
2024/01/08 10:21:26;;;;;;;16.85;8.52;;;;;;;-145.63;100.00;61273.97;5074888;28;20021;-65
2024/01/08 10:24:06;;;;;;;15.80;9.15;;;;;;;-145.63;100.00;61273.97;5066251;28;20091;-64
2024/01/08 10:26:32;;;;;;;11.13;7.95;;;;;;;-145.63;100.00;61273.97;5064507;28;20108;-64
2024/01/08 10:28:57;;;;;;;16.58;9.40;;;;;;;-145.63;100.00;61273.97;5062953;28;20037;-65
2024/01/08 10:31:24;;;;;;;18.42;10.18;;;;;;;-145.63;100.00;61273.97;5078316;28;20308;-65
2024/01/08 10:33:50;;;;;;;16.08;8.68;;;;;;;-145.63;100.00;61273.97;5071849;28;20024;-64
2024/01/08 10:36:16;;;;;;;18.48;9.80;;;;;;;-145.63;100.00;61273.97;5068760;28;20466;-64
2024/01/08 10:38:43;;;;;;;13.73;7.95;;;;;;;-145.63;100.00;61273.97;5080702;28;20032;-63
2024/01/08 10:41:11;;;;;;;15.05;8.50;;;;;;;-145.63;100.00;61273.97;5062387;28;20099;-63
2024/01/08 10:43:37;;;;;;;15.77;9.55;;;;;;;-145.63;100.00;61273.97;5079943;28;20056;-63
2024/01/08 10:46:04;;;;;;;13.00;7.95;;;;;;;-145.63;100.00;61273.97;5069498;28;20032;-64
2024/01/08 10:48:40;;;;;;;14.40;8.68;;;;;;;-145.63;100.00;61273.97;5070352;28;20025;-63
2024/01/08 10:51:08;;;;;;;14.85;8.75;;;;;;;-145.63;100.00;61273.97;5082273;28;20044;-63